sensor_id;sensor_type;location;lat;lon;timestamp;P1;durP1;ratioP1;P2;durP2;ratioP2
5054;SDS011;13829;48.990;8.346;2023-01-19T00:00:24;13.07;;;8.87;;
5054;SDS011;13829;48.990;8.346;2023-01-19T00:02:51;12.97;;;8.67;;
5054;SDS011;13829;48.990;8.346;2023-01-19T00:05:19;10.83;;;8.23;;
5054;SDS011;13829;48.990;8.346;2023-01-19T00:07:46;13.10;;;8.70;;
5054;SDS011;13829;48.990;8.346;2023-01-19T00:10:13;9.60;;;8.30;;
5054;SDS011;13829;48.990;8.346;2023-01-19T00:12:41;12.03;;;8.63;;
5054;SDS011;13829;48.990;8.346;2023-01-19T00:15:09;13.07;;;9.70;;
5054;SDS011;13829;48.990;8.346;2023-01-19T00:17:37;11.53;;;8.50;;
5054;SDS011;13829;48.990;8.346;2023-01-19T00:20:06;9.77;;;7.60;;
5054;SDS011;13829;48.990;8.346;2023-01-19T00:22:35;10.63;;;8.40;;
5054;SDS011;13829;48.990;8.346;2023-01-19T00:25:02;13.53;;;8.60;;
5054;SDS011;13829;48.990;8.346;2023-01-19T00:27:29;11.50;;;8.47;;
5054;SDS011;13829;48.990;8.346;2023-01-19T00:29:58;13.10;;;8.93;;
5054;SDS011;13829;48.990;8.346;2023-01-19T00:32:27;14.10;;;8.77;;
5054;SDS011;13829;48.990;8.346;2023-01-19T00:34:54;11.87;;;8.10;;
5054;SDS011;13829;48.990;8.346;2023-01-19T00:37:21;10.50;;;7.97;;
5054;SDS011;13829;48.990;8.346;2023-01-19T00:39:48;12.23;;;7.80;;
5054;SDS011;13829;48.990;8.346;2023-01-19T00:42:15;11.53;;;7.77;;
5054;SDS011;13829;48.990;8.346;2023-01-19T00:44:59;10.53;;;7.70;;
5054;SDS011;13829;48.990;8.346;2023-01-19T00:47:27;12.07;;;8.07;;
5054;SDS011;13829;48.990;8.346;2023-01-19T00:49:56;10.63;;;7.90;;
5054;SDS011;13829;48.990;8.346;2023-01-19T00:52:22;9.77;;;8.03;;
5054;SDS011;13829;48.990;8.346;2023-01-19T00:54:49;9.60;;;7.93;;
5054;SDS011;13829;48.990;8.346;2023-01-19T00:57:16;11.43;;;8.57;;
5054;SDS011;13829;48.990;8.346;2023-01-19T00:59:44;10.47;;;7.80;;
5054;SDS011;13829;48.990;8.346;2023-01-19T01:02:11;9.60;;;7.80;;
5054;SDS011;13829;48.990;8.346;2023-01-19T01:04:39;12.07;;;7.70;;
5054;SDS011;13829;48.990;8.346;2023-01-19T01:07:06;10.47;;;7.97;;
5054;SDS011;13829;48.990;8.346;2023-01-19T01:09:33;12.63;;;8.60;;
5054;SDS011;13829;48.990;8.346;2023-01-19T01:12:00;8.80;;;6.60;;
5054;SDS011;13829;48.990;8.346;2023-01-19T01:14:27;9.93;;;7.43;;
5054;SDS011;13829;48.990;8.346;2023-01-19T01:16:54;10.10;;;8.07;;
5054;SDS011;13829;48.990;8.346;2023-01-19T01:19:21;10.43;;;7.73;;
5054;SDS011;13829;48.990;8.346;2023-01-19T01:21:49;9.00;;;7.10;;
5054;SDS011;13829;48.990;8.346;2023-01-19T01:24:16;9.20;;;7.30;;
5054;SDS011;13829;48.990;8.346;2023-01-19T01:26:44;13.10;;;7.00;;
5054;SDS011;13829;48.990;8.346;2023-01-19T01:29:11;11.10;;;7.33;;
5054;SDS011;13829;48.990;8.346;2023-01-19T01:31:38;8.13;;;6.50;;
5054;SDS011;13829;48.990;8.346;2023-01-19T01:34:05;10.47;;;7.33;;
5054;SDS011;13829;48.990;8.346;2023-01-19T01:36:32;10.23;;;7.00;;
5054;SDS011;13829;48.990;8.346;2023-01-19T01:39:01;10.80;;;6.90;;
5054;SDS011;13829;48.990;8.346;2023-01-19T01:41:29;11.57;;;7.87;;
5054;SDS011;13829;48.990;8.346;2023-01-19T01:43:57;7.70;;;6.90;;
5054;SDS011;13829;48.990;8.346;2023-01-19T01:46:26;11.93;;;6.67;;
5054;SDS011;13829;48.990;8.346;2023-01-19T01:48:58;10.43;;;7.27;;
5054;SDS011;13829;48.990;8.346;2023-01-19T01:51:31;8.87;;;7.63;;
5054;SDS011;13829;48.990;8.346;2023-01-19T01:54:09;10.67;;;7.53;;
5054;SDS011;13829;48.990;8.346;2023-01-19T01:56:43;10.53;;;7.17;;
5054;SDS011;13829;48.990;8.346;2023-01-19T01:59:14;9.60;;;7.40;;
5054;SDS011;13829;48.990;8.346;2023-01-19T02:01:51;11.93;;;7.50;;
5054;SDS011;13829;48.990;8.346;2023-01-19T02:04:37;9.40;;;7.37;;
5054;SDS011;13829;48.990;8.346;2023-01-19T02:07:09;8.90;;;7.10;;
5054;SDS011;13829;48.990;8.346;2023-01-19T02:10:03;14.00;;;8.20;;
5054;SDS011;13829;48.990;8.346;2023-01-19T02:12:48;12.00;;;7.37;;
5054;SDS011;13829;48.990;8.346;2023-01-19T02:15:33;9.47;;;6.93;;
5054;SDS011;13829;48.990;8.346;2023-01-19T02:18:00;10.83;;;8.20;;
5054;SDS011;13829;48.990;8.346;2023-01-19T02:20:27;9.73;;;7.47;;
5054;SDS011;13829;48.990;8.346;2023-01-19T02:23:00;10.77;;;7.40;;
5054;SDS011;13829;48.990;8.346;2023-01-19T02:25:34;12.23;;;7.57;;
5054;SDS011;13829;48.990;8.346;2023-01-19T02:28:01;11.70;;;7.73;;
5054;SDS011;13829;48.990;8.346;2023-01-19T02:30:29;11.83;;;7.83;;
5054;SDS011;13829;48.990;8.346;2023-01-19T02:32:56;11.90;;;7.67;;
5054;SDS011;13829;48.990;8.346;2023-01-19T02:35:23;10.57;;;7.27;;
5054;SDS011;13829;48.990;8.346;2023-01-19T02:37:51;10.80;;;8.47;;
5054;SDS011;13829;48.990;8.346;2023-01-19T02:40:19;9.50;;;7.27;;
5054;SDS011;13829;48.990;8.346;2023-01-19T02:42:50;11.00;;;7.73;;
5054;SDS011;13829;48.990;8.346;2023-01-19T02:45:24;9.33;;;7.67;;
5054;SDS011;13829;48.990;8.346;2023-01-19T02:47:52;10.07;;;7.90;;
5054;SDS011;13829;48.990;8.346;2023-01-19T02:50:39;9.77;;;7.93;;
5054;SDS011;13829;48.990;8.346;2023-01-19T02:56:38;9.50;;;7.63;;
5054;SDS011;13829;48.990;8.346;2023-01-19T02:59:30;9.37;;;7.90;;
5054;SDS011;13829;48.990;8.346;2023-01-19T03:02:16;13.03;;;8.80;;
5054;SDS011;13829;48.990;8.346;2023-01-19T03:04:58;11.40;;;7.83;;
5054;SDS011;13829;48.990;8.346;2023-01-19T03:07:43;11.60;;;8.17;;
5054;SDS011;13829;48.990;8.346;2023-01-19T03:10:21;12.50;;;8.63;;
5054;SDS011;13829;48.990;8.346;2023-01-19T03:12:59;11.10;;;8.50;;
5054;SDS011;13829;48.990;8.346;2023-01-19T03:15:38;12.53;;;8.40;;
5054;SDS011;13829;48.990;8.346;2023-01-19T03:18:13;13.43;;;8.33;;
5054;SDS011;13829;48.990;8.346;2023-01-19T03:20:45;10.23;;;7.77;;
5054;SDS011;13829;48.990;8.346;2023-01-19T03:23:17;11.73;;;9.00;;
5054;SDS011;13829;48.990;8.346;2023-01-19T03:25:49;10.70;;;8.07;;
5054;SDS011;13829;48.990;8.346;2023-01-19T03:28:21;10.43;;;8.20;;
5054;SDS011;13829;48.990;8.346;2023-01-19T03:30:54;10.67;;;8.47;;
5054;SDS011;13829;48.990;8.346;2023-01-19T03:33:29;12.30;;;8.97;;
5054;SDS011;13829;48.990;8.346;2023-01-19T03:36:02;10.70;;;8.40;;
5054;SDS011;13829;48.990;8.346;2023-01-19T03:38:37;11.47;;;8.10;;
5054;SDS011;13829;48.990;8.346;2023-01-19T03:41:09;14.37;;;9.03;;
5054;SDS011;13829;48.990;8.346;2023-01-19T03:43:41;11.40;;;8.43;;
5054;SDS011;13829;48.990;8.346;2023-01-19T03:46:12;11.77;;;8.07;;
5054;SDS011;13829;48.990;8.346;2023-01-19T03:48:42;9.83;;;7.53;;
5054;SDS011;13829;48.990;8.346;2023-01-19T03:51:11;10.67;;;8.17;;
5054;SDS011;13829;48.990;8.346;2023-01-19T03:53:38;13.37;;;8.93;;
5054;SDS011;13829;48.990;8.346;2023-01-19T03:56:06;12.13;;;8.00;;
5054;SDS011;13829;48.990;8.346;2023-01-19T03:58:43;12.20;;;8.37;;
5054;SDS011;13829;48.990;8.346;2023-01-19T04:01:10;10.27;;;8.23;;
5054;SDS011;13829;48.990;8.346;2023-01-19T04:03:39;13.73;;;9.57;;
5054;SDS011;13829;48.990;8.346;2023-01-19T04:06:06;14.83;;;9.30;;
5054;SDS011;13829;48.990;8.346;2023-01-19T04:08:34;12.73;;;9.43;;
5054;SDS011;13829;48.990;8.346;2023-01-19T04:11:02;11.43;;;8.83;;
5054;SDS011;13829;48.990;8.346;2023-01-19T04:13:29;12.43;;;8.67;;
5054;SDS011;13829;48.990;8.346;2023-01-19T04:15:58;14.10;;;9.17;;
5054;SDS011;13829;48.990;8.346;2023-01-19T04:18:26;11.73;;;9.03;;
5054;SDS011;13829;48.990;8.346;2023-01-19T04:20:58;12.33;;;8.60;;
5054;SDS011;13829;48.990;8.346;2023-01-19T04:23:25;12.00;;;8.97;;
5054;SDS011;13829;48.990;8.346;2023-01-19T04:25:55;13.53;;;8.90;;
5054;SDS011;13829;48.990;8.346;2023-01-19T04:28:23;13.13;;;9.37;;
5054;SDS011;13829;48.990;8.346;2023-01-19T04:30:50;14.40;;;9.33;;
5054;SDS011;13829;48.990;8.346;2023-01-19T04:33:18;12.63;;;9.53;;
5054;SDS011;13829;48.990;8.346;2023-01-19T04:35:45;14.33;;;9.53;;
5054;SDS011;13829;48.990;8.346;2023-01-19T04:38:15;12.40;;;9.17;;
5054;SDS011;13829;48.990;8.346;2023-01-19T04:40:42;10.13;;;8.50;;
5054;SDS011;13829;48.990;8.346;2023-01-19T04:43:09;11.33;;;8.63;;
5054;SDS011;13829;48.990;8.346;2023-01-19T04:45:36;13.87;;;9.00;;
5054;SDS011;13829;48.990;8.346;2023-01-19T04:48:03;11.10;;;7.90;;
5054;SDS011;13829;48.990;8.346;2023-01-19T04:50:30;10.80;;;8.30;;
5054;SDS011;13829;48.990;8.346;2023-01-19T04:52:57;13.07;;;9.20;;
5054;SDS011;13829;48.990;8.346;2023-01-19T04:55:26;11.97;;;9.20;;
5054;SDS011;13829;48.990;8.346;2023-01-19T04:57:53;9.67;;;8.17;;
5054;SDS011;13829;48.990;8.346;2023-01-19T05:00:20;12.13;;;8.80;;
5054;SDS011;13829;48.990;8.346;2023-01-19T05:02:48;11.03;;;8.93;;
5054;SDS011;13829;48.990;8.346;2023-01-19T05:05:15;12.67;;;9.50;;
5054;SDS011;13829;48.990;8.346;2023-01-19T05:07:42;12.30;;;9.20;;
5054;SDS011;13829;48.990;8.346;2023-01-19T05:10:09;12.00;;;8.50;;
5054;SDS011;13829;48.990;8.346;2023-01-19T05:12:38;10.50;;;8.70;;
5054;SDS011;13829;48.990;8.346;2023-01-19T05:15:06;13.23;;;9.10;;
5054;SDS011;13829;48.990;8.346;2023-01-19T05:17:35;12.60;;;9.43;;
5054;SDS011;13829;48.990;8.346;2023-01-19T05:20:03;12.73;;;9.07;;
5054;SDS011;13829;48.990;8.346;2023-01-19T05:22:31;12.47;;;9.13;;
5054;SDS011;13829;48.990;8.346;2023-01-19T05:24:58;12.40;;;9.07;;
5054;SDS011;13829;48.990;8.346;2023-01-19T05:27:25;11.67;;;8.87;;
5054;SDS011;13829;48.990;8.346;2023-01-19T05:29:53;10.93;;;9.00;;
5054;SDS011;13829;48.990;8.346;2023-01-19T05:32:20;18.53;;;9.13;;
5054;SDS011;13829;48.990;8.346;2023-01-19T05:34:47;10.97;;;8.67;;
5054;SDS011;13829;48.990;8.346;2023-01-19T05:37:14;13.30;;;8.57;;
5054;SDS011;13829;48.990;8.346;2023-01-19T05:39:41;13.03;;;8.33;;
5054;SDS011;13829;48.990;8.346;2023-01-19T05:42:08;11.57;;;8.47;;
5054;SDS011;13829;48.990;8.346;2023-01-19T05:44:35;11.03;;;8.47;;
5054;SDS011;13829;48.990;8.346;2023-01-19T05:47:03;11.20;;;8.27;;
5054;SDS011;13829;48.990;8.346;2023-01-19T05:49:30;11.17;;;8.47;;
5054;SDS011;13829;48.990;8.346;2023-01-19T05:51:57;10.27;;;8.30;;
5054;SDS011;13829;48.990;8.346;2023-01-19T05:54:24;11.63;;;8.20;;
5054;SDS011;13829;48.990;8.346;2023-01-19T05:56:51;11.57;;;8.67;;
5054;SDS011;13829;48.990;8.346;2023-01-19T05:59:18;13.17;;;8.93;;
5054;SDS011;13829;48.990;8.346;2023-01-19T06:01:48;11.60;;;9.70;;
5054;SDS011;13829;48.990;8.346;2023-01-19T06:04:16;17.83;;;11.67;;
5054;SDS011;13829;48.990;8.346;2023-01-19T06:06:45;15.93;;;10.43;;
5054;SDS011;13829;48.990;8.346;2023-01-19T06:09:13;12.43;;;9.60;;
5054;SDS011;13829;48.990;8.346;2023-01-19T06:11:41;12.00;;;8.37;;
5054;SDS011;13829;48.990;8.346;2023-01-19T06:14:08;12.97;;;8.93;;
5054;SDS011;13829;48.990;8.346;2023-01-19T06:16:35;12.93;;;9.17;;
5054;SDS011;13829;48.990;8.346;2023-01-19T06:19:02;14.33;;;9.70;;
5054;SDS011;13829;48.990;8.346;2023-01-19T06:21:31;12.20;;;9.07;;
5054;SDS011;13829;48.990;8.346;2023-01-19T06:23:58;12.03;;;9.03;;
5054;SDS011;13829;48.990;8.346;2023-01-19T06:26:25;12.50;;;9.40;;
5054;SDS011;13829;48.990;8.346;2023-01-19T06:28:52;10.13;;;8.40;;
5054;SDS011;13829;48.990;8.346;2023-01-19T06:31:19;10.57;;;8.70;;
5054;SDS011;13829;48.990;8.346;2023-01-19T06:33:46;12.27;;;9.60;;
5054;SDS011;13829;48.990;8.346;2023-01-19T06:36:13;12.47;;;9.77;;
5054;SDS011;13829;48.990;8.346;2023-01-19T06:38:41;14.90;;;9.97;;
5054;SDS011;13829;48.990;8.346;2023-01-19T06:41:08;15.40;;;9.47;;
5054;SDS011;13829;48.990;8.346;2023-01-19T06:43:35;11.40;;;8.77;;
5054;SDS011;13829;48.990;8.346;2023-01-19T06:46:01;15.10;;;8.40;;
5054;SDS011;13829;48.990;8.346;2023-01-19T06:48:28;10.27;;;7.50;;
5054;SDS011;13829;48.990;8.346;2023-01-19T06:50:55;11.10;;;8.57;;
5054;SDS011;13829;48.990;8.346;2023-01-19T06:53:22;10.17;;;7.70;;
5054;SDS011;13829;48.990;8.346;2023-01-19T06:55:53;9.27;;;7.93;;
5054;SDS011;13829;48.990;8.346;2023-01-19T06:58:25;11.00;;;8.30;;
5054;SDS011;13829;48.990;8.346;2023-01-19T07:00:52;10.10;;;7.47;;
5054;SDS011;13829;48.990;8.346;2023-01-19T07:03:20;13.10;;;9.00;;
5054;SDS011;13829;48.990;8.346;2023-01-19T07:05:50;10.83;;;8.63;;
5054;SDS011;13829;48.990;8.346;2023-01-19T07:08:17;11.17;;;7.93;;
5054;SDS011;13829;48.990;8.346;2023-01-19T07:10:44;9.97;;;7.30;;
5054;SDS011;13829;48.990;8.346;2023-01-19T07:13:13;10.80;;;8.00;;
5054;SDS011;13829;48.990;8.346;2023-01-19T07:15:40;11.57;;;7.77;;
5054;SDS011;13829;48.990;8.346;2023-01-19T07:18:07;12.83;;;8.00;;
5054;SDS011;13829;48.990;8.346;2023-01-19T07:20:34;11.67;;;8.00;;
5054;SDS011;13829;48.990;8.346;2023-01-19T07:23:02;10.33;;;8.33;;
5054;SDS011;13829;48.990;8.346;2023-01-19T07:25:29;12.03;;;8.77;;
5054;SDS011;13829;48.990;8.346;2023-01-19T07:27:56;11.90;;;9.23;;
5054;SDS011;13829;48.990;8.346;2023-01-19T07:30:25;9.37;;;7.87;;
5054;SDS011;13829;48.990;8.346;2023-01-19T07:32:53;10.40;;;7.47;;
5054;SDS011;13829;48.990;8.346;2023-01-19T07:35:21;9.83;;;7.17;;
5054;SDS011;13829;48.990;8.346;2023-01-19T07:37:49;10.67;;;8.10;;
5054;SDS011;13829;48.990;8.346;2023-01-19T07:40:16;9.73;;;7.03;;
5054;SDS011;13829;48.990;8.346;2023-01-19T07:42:46;11.37;;;7.77;;
5054;SDS011;13829;48.990;8.346;2023-01-19T07:45:14;12.13;;;7.57;;
5054;SDS011;13829;48.990;8.346;2023-01-19T07:47:43;9.17;;;7.17;;
5054;SDS011;13829;48.990;8.346;2023-01-19T07:50:13;9.57;;;7.07;;
5054;SDS011;13829;48.990;8.346;2023-01-19T07:52:45;9.50;;;6.97;;
5054;SDS011;13829;48.990;8.346;2023-01-19T07:55:14;9.43;;;7.10;;
5054;SDS011;13829;48.990;8.346;2023-01-19T07:57:41;11.13;;;7.23;;
5054;SDS011;13829;48.990;8.346;2023-01-19T08:00:09;9.40;;;6.93;;
5054;SDS011;13829;48.990;8.346;2023-01-19T08:02:38;9.20;;;6.87;;
5054;SDS011;13829;48.990;8.346;2023-01-19T08:05:07;9.20;;;7.00;;
5054;SDS011;13829;48.990;8.346;2023-01-19T08:07:34;9.87;;;6.70;;
5054;SDS011;13829;48.990;8.346;2023-01-19T08:10:01;8.37;;;6.63;;
5054;SDS011;13829;48.990;8.346;2023-01-19T08:12:28;10.83;;;6.70;;
5054;SDS011;13829;48.990;8.346;2023-01-19T08:14:55;9.77;;;6.90;;
5054;SDS011;13829;48.990;8.346;2023-01-19T08:17:22;8.53;;;6.73;;
5054;SDS011;13829;48.990;8.346;2023-01-19T08:19:49;10.03;;;7.53;;
5054;SDS011;13829;48.990;8.346;2023-01-19T08:22:17;9.10;;;7.00;;
5054;SDS011;13829;48.990;8.346;2023-01-19T08:24:44;9.67;;;7.20;;
5054;SDS011;13829;48.990;8.346;2023-01-19T08:27:11;10.93;;;7.17;;
5054;SDS011;13829;48.990;8.346;2023-01-19T08:29:38;10.20;;;7.70;;
5054;SDS011;13829;48.990;8.346;2023-01-19T08:32:05;9.77;;;6.90;;
5054;SDS011;13829;48.990;8.346;2023-01-19T08:34:32;11.80;;;7.07;;
5054;SDS011;13829;48.990;8.346;2023-01-19T08:36:59;11.57;;;8.13;;
5054;SDS011;13829;48.990;8.346;2023-01-19T08:39:27;10.27;;;7.23;;
5054;SDS011;13829;48.990;8.346;2023-01-19T08:41:54;8.83;;;7.20;;
5054;SDS011;13829;48.990;8.346;2023-01-19T08:44:22;8.03;;;6.03;;
5054;SDS011;13829;48.990;8.346;2023-01-19T08:46:49;8.60;;;6.37;;
5054;SDS011;13829;48.990;8.346;2023-01-19T08:49:15;10.10;;;7.13;;
5054;SDS011;13829;48.990;8.346;2023-01-19T08:51:42;8.60;;;6.40;;
5054;SDS011;13829;48.990;8.346;2023-01-19T08:54:11;8.33;;;6.33;;
5054;SDS011;13829;48.990;8.346;2023-01-19T08:56:40;9.97;;;6.80;;
5054;SDS011;13829;48.990;8.346;2023-01-19T08:59:07;9.00;;;5.77;;
5054;SDS011;13829;48.990;8.346;2023-01-19T09:01:34;8.73;;;6.03;;
5054;SDS011;13829;48.990;8.346;2023-01-19T09:04:02;8.90;;;7.00;;
5054;SDS011;13829;48.990;8.346;2023-01-19T09:06:29;8.30;;;6.20;;
5054;SDS011;13829;48.990;8.346;2023-01-19T09:08:56;10.17;;;7.07;;
5054;SDS011;13829;48.990;8.346;2023-01-19T09:11:23;10.37;;;6.10;;
5054;SDS011;13829;48.990;8.346;2023-01-19T09:13:52;7.73;;;6.37;;
5054;SDS011;13829;48.990;8.346;2023-01-19T09:16:19;9.07;;;6.70;;
5054;SDS011;13829;48.990;8.346;2023-01-19T09:18:46;8.40;;;6.53;;
5054;SDS011;13829;48.990;8.346;2023-01-19T09:21:13;9.37;;;7.00;;
5054;SDS011;13829;48.990;8.346;2023-01-19T09:23:41;8.63;;;6.40;;
5054;SDS011;13829;48.990;8.346;2023-01-19T09:26:08;11.60;;;6.90;;
5054;SDS011;13829;48.990;8.346;2023-01-19T09:28:36;8.63;;;6.73;;
5054;SDS011;13829;48.990;8.346;2023-01-19T09:31:05;10.57;;;6.77;;
5054;SDS011;13829;48.990;8.346;2023-01-19T09:33:33;9.57;;;6.50;;
5054;SDS011;13829;48.990;8.346;2023-01-19T09:36:01;8.77;;;5.97;;
5054;SDS011;13829;48.990;8.346;2023-01-19T09:38:28;9.27;;;6.73;;
5054;SDS011;13829;48.990;8.346;2023-01-19T09:40:56;8.43;;;6.57;;
5054;SDS011;13829;48.990;8.346;2023-01-19T09:43:30;8.30;;;6.63;;
5054;SDS011;13829;48.990;8.346;2023-01-19T09:46:02;8.77;;;6.47;;
5054;SDS011;13829;48.990;8.346;2023-01-19T09:48:41;8.93;;;6.70;;
5054;SDS011;13829;48.990;8.346;2023-01-19T09:51:12;7.83;;;6.13;;
5054;SDS011;13829;48.990;8.346;2023-01-19T09:56:36;7.40;;;6.50;;
5054;SDS011;13829;48.990;8.346;2023-01-19T09:59:09;10.30;;;6.77;;
5054;SDS011;13829;48.990;8.346;2023-01-19T10:01:51;7.63;;;6.13;;
5054;SDS011;13829;48.990;8.346;2023-01-19T10:04:33;6.50;;;5.53;;
5054;SDS011;13829;48.990;8.346;2023-01-19T10:07:07;8.17;;;6.53;;
5054;SDS011;13829;48.990;8.346;2023-01-19T10:12:48;8.77;;;6.83;;
5054;SDS011;13829;48.990;8.346;2023-01-19T10:15:29;9.23;;;6.57;;
5054;SDS011;13829;48.990;8.346;2023-01-19T10:18:11;7.13;;;6.40;;
5054;SDS011;13829;48.990;8.346;2023-01-19T10:20:45;9.97;;;6.93;;
5054;SDS011;13829;48.990;8.346;2023-01-19T10:23:18;9.37;;;7.00;;
5054;SDS011;13829;48.990;8.346;2023-01-19T10:26:05;7.20;;;6.00;;
5054;SDS011;13829;48.990;8.346;2023-01-19T10:28:40;10.60;;;7.40;;
5054;SDS011;13829;48.990;8.346;2023-01-19T10:31:08;9.07;;;7.00;;
5054;SDS011;13829;48.990;8.346;2023-01-19T10:33:38;9.03;;;7.30;;
5054;SDS011;13829;48.990;8.346;2023-01-19T10:36:09;10.97;;;6.80;;
5054;SDS011;13829;48.990;8.346;2023-01-19T10:38:44;10.87;;;7.23;;
5054;SDS011;13829;48.990;8.346;2023-01-19T10:41:13;9.77;;;6.87;;
5054;SDS011;13829;48.990;8.346;2023-01-19T10:43:48;10.00;;;7.37;;
5054;SDS011;13829;48.990;8.346;2023-01-19T10:46:26;8.87;;;7.97;;
5054;SDS011;13829;48.990;8.346;2023-01-19T10:49:03;10.00;;;7.27;;
5054;SDS011;13829;48.990;8.346;2023-01-19T10:51:31;11.30;;;7.47;;
5054;SDS011;13829;48.990;8.346;2023-01-19T10:53:59;7.77;;;6.90;;
5054;SDS011;13829;48.990;8.346;2023-01-19T10:56:31;11.60;;;6.60;;
5054;SDS011;13829;48.990;8.346;2023-01-19T10:59:03;11.07;;;7.63;;
5054;SDS011;13829;48.990;8.346;2023-01-19T11:01:32;11.13;;;7.77;;
5054;SDS011;13829;48.990;8.346;2023-01-19T11:04:18;13.00;;;7.33;;
5054;SDS011;13829;48.990;8.346;2023-01-19T11:06:53;10.03;;;6.40;;
5054;SDS011;13829;48.990;8.346;2023-01-19T11:09:41;10.40;;;7.57;;
5054;SDS011;13829;48.990;8.346;2023-01-19T11:12:14;8.97;;;6.77;;
5054;SDS011;13829;48.990;8.346;2023-01-19T11:14:44;9.13;;;7.23;;
5054;SDS011;13829;48.990;8.346;2023-01-19T11:17:17;9.60;;;7.07;;
5054;SDS011;13829;48.990;8.346;2023-01-19T11:19:53;10.93;;;7.23;;
5054;SDS011;13829;48.990;8.346;2023-01-19T11:22:25;9.37;;;7.30;;
5054;SDS011;13829;48.990;8.346;2023-01-19T11:24:58;7.67;;;6.87;;
5054;SDS011;13829;48.990;8.346;2023-01-19T11:27:26;8.07;;;6.80;;
5054;SDS011;13829;48.990;8.346;2023-01-19T11:29:59;9.50;;;6.80;;
5054;SDS011;13829;48.990;8.346;2023-01-19T11:32:34;11.90;;;7.40;;
5054;SDS011;13829;48.990;8.346;2023-01-19T11:35:09;7.63;;;6.47;;
5054;SDS011;13829;48.990;8.346;2023-01-19T11:40:50;8.73;;;6.97;;
5054;SDS011;13829;48.990;8.346;2023-01-19T11:43:21;7.30;;;6.40;;
5054;SDS011;13829;48.990;8.346;2023-01-19T11:45:52;8.97;;;7.17;;
5054;SDS011;13829;48.990;8.346;2023-01-19T11:48:22;11.47;;;7.33;;
5054;SDS011;13829;48.990;8.346;2023-01-19T11:50:56;13.80;;;7.67;;
5054;SDS011;13829;48.990;8.346;2023-01-19T11:53:29;8.37;;;6.93;;
5054;SDS011;13829;48.990;8.346;2023-01-19T11:56:00;8.40;;;7.07;;
5054;SDS011;13829;48.990;8.346;2023-01-19T11:58:32;11.07;;;7.03;;
5054;SDS011;13829;48.990;8.346;2023-01-19T12:01:05;12.83;;;8.00;;
5054;SDS011;13829;48.990;8.346;2023-01-19T12:03:45;9.50;;;7.13;;
5054;SDS011;13829;48.990;8.346;2023-01-19T12:06:22;9.57;;;7.70;;
5054;SDS011;13829;48.990;8.346;2023-01-19T12:08:56;9.77;;;7.13;;
5054;SDS011;13829;48.990;8.346;2023-01-19T12:11:29;9.60;;;7.00;;
5054;SDS011;13829;48.990;8.346;2023-01-19T12:14:01;8.80;;;6.80;;
5054;SDS011;13829;48.990;8.346;2023-01-19T12:16:31;7.63;;;6.73;;
5054;SDS011;13829;48.990;8.346;2023-01-19T12:19:04;12.23;;;7.67;;
5054;SDS011;13829;48.990;8.346;2023-01-19T12:21:42;8.63;;;6.30;;
5054;SDS011;13829;48.990;8.346;2023-01-19T12:24:12;9.73;;;7.43;;
5054;SDS011;13829;48.990;8.346;2023-01-19T12:26:50;8.67;;;6.93;;
5054;SDS011;13829;48.990;8.346;2023-01-19T12:29:21;8.33;;;7.37;;
5054;SDS011;13829;48.990;8.346;2023-01-19T12:34:43;9.03;;;7.37;;
5054;SDS011;13829;48.990;8.346;2023-01-19T12:40:02;8.03;;;6.97;;
5054;SDS011;13829;48.990;8.346;2023-01-19T12:42:47;11.37;;;6.67;;
5054;SDS011;13829;48.990;8.346;2023-01-19T12:45:23;11.47;;;8.00;;
5054;SDS011;13829;48.990;8.346;2023-01-19T12:47:56;10.57;;;6.90;;
5054;SDS011;13829;48.990;8.346;2023-01-19T12:50:23;9.90;;;7.20;;
5054;SDS011;13829;48.990;8.346;2023-01-19T12:52:55;11.50;;;7.23;;
5054;SDS011;13829;48.990;8.346;2023-01-19T12:55:26;10.70;;;7.80;;
5054;SDS011;13829;48.990;8.346;2023-01-19T12:57:58;8.50;;;7.57;;
5054;SDS011;13829;48.990;8.346;2023-01-19T13:00:33;9.97;;;7.50;;
5054;SDS011;13829;48.990;8.346;2023-01-19T13:03:04;10.40;;;7.63;;
5054;SDS011;13829;48.990;8.346;2023-01-19T13:06:11;11.10;;;7.30;;
5054;SDS011;13829;48.990;8.346;2023-01-19T13:08:58;9.73;;;7.67;;
5054;SDS011;13829;48.990;8.346;2023-01-19T13:11:26;9.57;;;7.67;;
5054;SDS011;13829;48.990;8.346;2023-01-19T13:17:01;9.17;;;8.00;;
5054;SDS011;13829;48.990;8.346;2023-01-19T13:19:55;9.77;;;7.20;;
5054;SDS011;13829;48.990;8.346;2023-01-19T13:22:49;10.83;;;7.60;;
5054;SDS011;13829;48.990;8.346;2023-01-19T13:26:01;11.47;;;7.30;;
5054;SDS011;13829;48.990;8.346;2023-01-19T13:28:33;11.57;;;7.47;;
5054;SDS011;13829;48.990;8.346;2023-01-19T13:31:05;10.63;;;7.27;;
5054;SDS011;13829;48.990;8.346;2023-01-19T13:33:38;9.13;;;7.17;;
5054;SDS011;13829;48.990;8.346;2023-01-19T13:36:15;8.53;;;7.47;;
5054;SDS011;13829;48.990;8.346;2023-01-19T13:38:50;9.03;;;7.03;;
5054;SDS011;13829;48.990;8.346;2023-01-19T13:41:21;9.47;;;7.83;;
5054;SDS011;13829;48.990;8.346;2023-01-19T13:43:54;10.60;;;7.57;;
5054;SDS011;13829;48.990;8.346;2023-01-19T13:46:26;8.17;;;6.90;;
5054;SDS011;13829;48.990;8.346;2023-01-19T13:48:57;9.67;;;6.93;;
5054;SDS011;13829;48.990;8.346;2023-01-19T13:51:34;9.57;;;6.77;;
5054;SDS011;13829;48.990;8.346;2023-01-19T13:54:01;8.03;;;6.70;;
5054;SDS011;13829;48.990;8.346;2023-01-19T13:56:31;8.10;;;6.67;;
5054;SDS011;13829;48.990;8.346;2023-01-19T13:58:59;11.07;;;6.00;;
5054;SDS011;13829;48.990;8.346;2023-01-19T14:01:39;8.47;;;6.37;;
5054;SDS011;13829;48.990;8.346;2023-01-19T14:04:23;8.63;;;6.60;;
5054;SDS011;13829;48.990;8.346;2023-01-19T14:06:54;8.37;;;6.47;;
5054;SDS011;13829;48.990;8.346;2023-01-19T14:09:26;9.20;;;6.63;;
5054;SDS011;13829;48.990;8.346;2023-01-19T14:14:43;8.27;;;5.80;;
5054;SDS011;13829;48.990;8.346;2023-01-19T14:17:17;6.70;;;5.70;;
5054;SDS011;13829;48.990;8.346;2023-01-19T14:19:48;7.73;;;5.67;;
5054;SDS011;13829;48.990;8.346;2023-01-19T14:22:17;7.03;;;5.20;;
5054;SDS011;13829;48.990;8.346;2023-01-19T14:24:44;7.77;;;5.60;;
5054;SDS011;13829;48.990;8.346;2023-01-19T14:27:19;9.77;;;6.60;;
5054;SDS011;13829;48.990;8.346;2023-01-19T14:29:49;6.00;;;4.80;;
5054;SDS011;13829;48.990;8.346;2023-01-19T14:32:19;7.57;;;5.80;;
5054;SDS011;13829;48.990;8.346;2023-01-19T14:34:49;9.07;;;6.30;;
5054;SDS011;13829;48.990;8.346;2023-01-19T14:37:19;6.40;;;4.97;;
5054;SDS011;13829;48.990;8.346;2023-01-19T14:39:50;8.13;;;4.90;;
5054;SDS011;13829;48.990;8.346;2023-01-19T14:42:24;8.43;;;4.87;;
5054;SDS011;13829;48.990;8.346;2023-01-19T14:44:56;6.67;;;5.23;;
5054;SDS011;13829;48.990;8.346;2023-01-19T14:47:32;8.07;;;4.97;;
5054;SDS011;13829;48.990;8.346;2023-01-19T14:50:07;7.90;;;5.87;;
5054;SDS011;13829;48.990;8.346;2023-01-19T14:52:47;9.53;;;6.10;;
5054;SDS011;13829;48.990;8.346;2023-01-19T14:55:20;7.73;;;5.50;;
5054;SDS011;13829;48.990;8.346;2023-01-19T14:57:55;8.87;;;5.63;;
5054;SDS011;13829;48.990;8.346;2023-01-19T15:00:22;8.80;;;7.10;;
5054;SDS011;13829;48.990;8.346;2023-01-19T15:02:51;9.67;;;6.63;;
5054;SDS011;13829;48.990;8.346;2023-01-19T15:05:18;9.33;;;6.47;;
5054;SDS011;13829;48.990;8.346;2023-01-19T15:07:45;10.27;;;7.47;;
5054;SDS011;13829;48.990;8.346;2023-01-19T15:10:15;10.30;;;7.20;;
5054;SDS011;13829;48.990;8.346;2023-01-19T15:12:46;9.57;;;7.87;;
5054;SDS011;13829;48.990;8.346;2023-01-19T15:15:16;12.70;;;7.97;;
5054;SDS011;13829;48.990;8.346;2023-01-19T15:17:49;12.40;;;8.50;;
5054;SDS011;13829;48.990;8.346;2023-01-19T15:20:17;10.13;;;7.07;;
5054;SDS011;13829;48.990;8.346;2023-01-19T15:22:47;9.70;;;7.73;;
5054;SDS011;13829;48.990;8.346;2023-01-19T15:25:15;9.40;;;6.90;;
5054;SDS011;13829;48.990;8.346;2023-01-19T15:27:45;11.83;;;8.27;;
5054;SDS011;13829;48.990;8.346;2023-01-19T15:30:16;10.83;;;8.63;;
5054;SDS011;13829;48.990;8.346;2023-01-19T15:32:47;9.43;;;7.83;;
5054;SDS011;13829;48.990;8.346;2023-01-19T15:35:15;10.07;;;7.37;;
5054;SDS011;13829;48.990;8.346;2023-01-19T15:37:45;10.20;;;7.63;;